Terminal Aerodrome Forecast
Issued by NWS

Home | Current Version | Previous Version | Graphics & Text | Print | Product List | Glossary On
Versions: 1 2 3 4 5 6 7 8 9 10 11 12 13 14 15 16
000
FTUS43 KBIS 070535
TAFMOT
TAF
KMOT 070535Z 0706/0806 28027G37KT 1SM -SN BLSN SCT010 OVC040
      TEMPO 0706/0709 1/2SM -SN BLSN BKN010 OVC025
     FM070900 28023G33KT 2SM BLSN BKN025 OVC060
     FM072100 29022G30KT 4SM -SN BLSN OVC025
     FM080000 29018G28KT P6SM OVC035=

USA.gov is the U.S. government's official web portal to all federal, state and local government web resources and services.